Flugplatz Stölln/Rhinow (EDOR)

Hier findest Du alle Informationen zum Flugplatz Stölln/Rhinow (EDOR).

Informationen für Piloten zum Flugplatz Stölln/Rhinow

Hier findest Du alle relevanten Informationen, die Du als Pilot benötigst, um Stölln/Rhinow anzufliegen.

Flugplatz: Stölln/Rhinow ICAO-Code: EDOR
Frequenz Turm: 122,000 Mhz GAFOR Gebiet: 15
Frequenz Ground: 122,000 Mhz Mogas: nein
Platzrunde: S 1000 ft Landegebühr: 5 €
Platzhöhe: Sunrise: 02:45 Uhr UTC
Pisten: 08/26 - 840 m x 40 m, GRAS Sunset: 19:41 Uhr UTC

Mitglieder, die in Stölln/Rhinow fliegen

Flugwetter am Flugplatz Stölln/Rhinow

Die METAR Information stammen aus EDDT (63.72 km entfernt).

METAR Code:
2020/11/09 06:50
EDDT 090650Z 09006KT 050V120 3000 BR OVC003 06/05 Q1027

Temperatur: 21,1 °C Niederschlag: - Wind: 6,0 kt (max.: 11,8 kt in Böen)
Temperatur (min.): 21,1 °C Luftdruck: 1013 hPa Windrichtung: 72 °
Temperatur (max.): 21,1 °C Luftfeuchtigkeit: 83 % Bewölkung: 6/8

Flugschulen am Flugplatz Stölln/Rhinow

Am Flugplatz Stölln/Rhinow gibt es leider keine Flugschule.

Benachbarte Flugplätze und Flugschulen

Es gibt 12 weitere Flugplätze in einem Umkreis von 50 km um den Flugplatz Stölln/Rhinow.

Jetzt anmelden

Passwort vergessen

Umfrage Archiv

Sendet Ihr ADS-B und/oder FLARM?

Ja
83.2 %
Nein
16.8 %
Stimmen: 173 | Diskussion
Anzeige: Roland Aircraft
Statistik Alle Mitglieder

Aktuell sind 59 Besucher online.

Anzeige: ULPower Aero Engines Anzeige: Pocket FMS